x

Matinicus Rock, Me (mism1) Weather Station

11:00am - Mon 2nd Mar 2015 All times are EST. -5 hours from GMT.

  • Wind
    18mph, 22mph gusts
  • 空気 Temp 27°f
  • Sea Pressure 1010.1mb
  • Matinicus Rock, Me
  • Matinicus Rock, Me

More Historic Weather Station data

Upgrade to MSW Pro to gain access to the past 30 days of data for over 8000 Wavebouys and Weather Stations around the globe.

Join Pro

Comparision Forecast

View Surf forecast
   
Mon 03/02 11:00am 18 22 mph 1010.1mb 27f
10:00am 17 18 mph 1010.2mb 28f
9:00am 15 17 mph 1010.8mb 26f
8:00am 18 21 mph 1011.1mb 26f
7:00am 21 22 mph 1011.2mb 26f
6:00am 15 17 mph 1011.7mb 27f
5:00am 14 16 mph 1012.2mb 28f
4:00am 16 18 mph 1012.7mb 28f
3:00am 17 20 mph 1013.6mb 29f
2:00am 18 20 mph 1015.3mb 30f
1:00am 23 25 mph 1017.1mb 31f
12:00am 23 24 mph 1018.4mb 32f
Sun 03/01 11:00pm 28 30 mph 1020.3mb 32f
10:00pm 31 34 mph 1021.7mb 31f
9:00pm 28 29 mph 1023.4mb 30f
8:00pm 25 26 mph 1024.4mb 29f
7:00pm 30 32 mph 1025.9mb 31f
6:00pm 24 28 mph 1027.6mb 31f
5:00pm 25 28 mph 1028.6mb 31f
4:00pm 22 25 mph 1029.4mb 31f
3:00pm 20 22 mph 1030.4mb 31f
2:00pm 20 21 mph 1031.1mb 32f
1:00pm 18 24 mph 1032.6mb 32f
12:00pm 7 9 mph 1034.1mb 31f
11:00am 5 6 mph 1036mb 30f
10:00am 5 6 mph 1036.7mb 29f
9:00am 5 7 mph 1037.6mb 27f
8:00am 5 6 mph 1038mb 26f
7:00am 8 9 mph 1037.7mb 26f
6:00am 7 8 mph 1038.1mb 26f
5:00am 9 11 mph 1038.6mb 26f
4:00am 10 13 mph 1038.1mb 26f
3:00am 11 14 mph 1038.2mb 26f
2:00am 14 16 mph 1038.6mb 27f
1:00am 14 15 mph 1038.3mb 27f
12:00am 20 21 mph 1037.9mb 28f
Sat 02/28 11:00pm 15 18 mph 1037.7mb 31f
10:00pm 17 21 mph 1038mb 30f
9:00pm 17 21 mph 1038.1mb 29f
8:00pm 21 23 mph 1037.7mb 28f
7:00pm 14 17 mph 1037.9mb 27f
6:00pm 17 20 mph 1037.7mb 26f
5:00pm 18 22 mph 1037.8mb 25f
4:00pm 17 21 mph 1037.8mb 24f
3:00pm 11 15 mph 1038.1mb 23f
2:00pm 13 15 mph 1038.2mb 22f
1:00pm 14 15 mph 1038.7mb 21f
12:00pm 14 16 mph 1039.2mb 21f
11:00am 10 13 mph 1039.5mb 20f
10:00am 9 10 mph 1039.2mb 20f
9:00am 2 5 mph 1039.3mb 20f
8:00am 6 7 mph 1038.7mb 19f
7:00am 1 3 mph 1037.8mb 19f
6:00am 5 6 mph 1037.2mb 18f
5:00am 11 14 mph 1035.9mb 18f
4:00am 16 18 mph 1035mb 17f
3:00am 20 22 mph 1034.3mb 18f
2:00am 22 23 mph 1033.5mb 19f
1:00am 33 36 mph 1032.6mb 20f
12:00am 25 28 mph 1031.9mb 21f
Fri 02/27 11:00pm 21 24 mph 1031.4mb 22f
10:00pm 23 24 mph 1030.7mb 24f
9:00pm 20 22 mph 1030mb 24f
8:00pm 20 23 mph 1029.1mb 24f
7:00pm 14 16 mph 1029mb 24f
6:00pm 11 16 mph 1028mb 23f
5:00pm 8 9 mph 1027.3mb 22f
4:00pm 13 15 mph 1026.7mb 22f
3:00pm 11 15 mph 1026.5mb 20f
2:00pm 11 13 mph 1026.3mb 19f
1:00pm 11 14 mph 1026.1mb 18f
12:00pm 7 9 mph 1026.4mb 16f
11:00am 8 10 mph 1026.8mb 15f
10:00am 10 11 mph 1026.5mb 15f
9:00am 14 17 mph 1026.5mb 14f
8:00am 18 21 mph 1025.8mb 13f
7:00am 17 22 mph 1024.9mb 13f
6:00am 18 21 mph 1023.7mb 14f
5:00am 17 20 mph 1022.6mb 15f
4:00am 17 20 mph 1021.4mb 15f
3:00am 17 22 mph 1020.2mb 15f
2:00am 15 18 mph 1020.1mb 16f
1:00am 17 20 mph 1019.5mb 17f
12:00am 18 21 mph 1019mb 18f
Thu 02/26 11:00pm 17 21 mph 1018.7mb 18f
10:00pm 18 21 mph 1017.9mb 19f
9:00pm 18 21 mph 1017.1mb 18f
8:00pm 21 23 mph 1016.3mb 18f
7:00pm 17 21 mph 1016.5mb 18f
6:00pm 14 17 mph 1016.1mb 17f